Time;durP1;ratioP1;P1;durP2;ratioP2;P2;SDS_P1;SDS_P2;PMS_P1;PMS_P2;Temp;Humidity;BMP_temperature;BMP_pressure;BME280_temperature;BME280_humidity;BME280_pressure;Samples;Min_cycle;Max_cycle;Signal;HPM_P1;HPM_P2
2023/05/31 00:01:28;;;;;;;8.23;4.40;;;;;;;15.61;63.03;96672.25;5021295;28;20164;-65
2023/05/31 00:03:54;;;;;;;12.15;4.72;;;;;;;15.54;63.45;96679.75;5023311;28;20052;-65
2023/05/31 00:06:19;;;;;;;8.55;5.28;;;;;;;15.50;63.36;96674.25;5018741;28;20037;-65
2023/05/31 00:08:44;;;;;;;11.93;4.50;;;;;;;15.52;62.94;96662.81;5023039;28;20427;-65
2023/05/31 00:11:10;;;;;;;10.25;4.90;;;;;;;15.52;62.76;96669.16;5017935;28;20450;-65
2023/05/31 00:13:36;;;;;;;8.13;4.22;;;;;;;15.45;63.00;96664.44;5022364;28;20040;-65
2023/05/31 00:16:01;;;;;;;9.85;5.32;;;;;;;15.46;63.12;96665.97;5022478;28;20124;-64
2023/05/31 00:18:27;;;;;;;14.52;4.82;;;;;;;15.37;63.55;96659.31;5017316;28;20103;-66
2023/05/31 00:20:52;;;;;;;8.60;4.50;;;;;;;15.38;63.19;96660.91;5022689;28;20044;-66
2023/05/31 00:23:17;;;;;;;10.48;5.15;;;;;;;15.25;63.52;96652.25;5017427;28;20111;-65
2023/05/31 00:25:43;;;;;;;9.57;4.78;;;;;;;15.26;63.49;96651.09;5020967;28;20425;-65
2023/05/31 00:28:08;;;;;;;8.30;4.88;;;;;;;15.22;63.49;96667.66;5018304;28;20072;-65
2023/05/31 00:30:33;;;;;;;9.68;4.47;;;;;;;15.21;63.44;96662.53;5023281;28;20042;-65
2023/05/31 00:32:59;;;;;;;12.18;6.05;;;;;;;15.20;63.41;96664.50;5023115;28;20045;-65
2023/05/31 00:35:24;;;;;;;17.55;5.13;;;;;;;15.25;63.30;96660.53;5018243;28;20129;-65
2023/05/31 00:37:50;;;;;;;10.63;4.70;;;;;;;15.09;64.10;96663.75;5022405;28;20049;-66
2023/05/31 00:40:15;;;;;;;7.50;4.95;;;;;;;14.99;64.95;96657.03;5016892;28;20084;-68
2023/05/31 00:42:41;;;;;;;8.23;4.43;;;;;;;14.94;65.24;96662.97;5021503;28;20037;-65
2023/05/31 00:45:07;;;;;;;12.02;5.15;;;;;;;14.91;65.48;96661.00;5017536;28;20048;-66
2023/05/31 00:47:33;;;;;;;12.40;4.35;;;;;;;14.83;66.25;96665.72;5022432;28;20063;-66
2023/05/31 00:49:58;;;;;;;9.02;5.10;;;;;;;14.74;66.72;96668.09;5022529;28;20052;-65
2023/05/31 00:52:27;;;;;;;10.30;5.00;;;;;;;14.77;66.55;96667.31;5017126;28;20433;-65
2023/05/31 00:54:52;;;;;;;9.85;5.22;;;;;;;14.65;67.45;96674.00;5021628;28;20041;-66
2023/05/31 00:57:18;;;;;;;7.78;4.65;;;;;;;14.62;67.40;96666.56;5017033;28;20049;-66
2023/05/31 00:59:44;;;;;;;8.07;4.68;;;;;;;14.62;67.34;96679.53;5021842;28;20106;-65
2023/05/31 01:02:11;;;;;;;11.18;5.50;;;;;;;14.54;67.91;96671.22;5016791;28;20119;-66
2023/05/31 01:04:37;;;;;;;10.65;4.82;;;;;;;14.52;67.94;96670.84;5022163;28;20083;-65
2023/05/31 01:07:03;;;;;;;12.30;4.88;;;;;;;14.53;68.23;96679.88;5020301;28;20128;-63
2023/05/31 01:09:30;;;;;;;11.60;4.78;;;;;;;14.45;68.75;96672.81;5021214;28;20637;-64
2023/05/31 01:12:05;;;;;;;10.10;5.30;;;;;;;14.38;69.28;96670.03;5024691;28;20398;-64
2023/05/31 01:15:02;;;;;;;12.40;4.85;;;;;;;14.32;69.97;96670.44;5021009;28;20063;-65
2023/05/31 01:17:44;;;;;;;12.23;5.70;;;;;;;14.27;70.44;96665.31;5018476;28;20041;-65
2023/05/31 01:20:13;;;;;;;12.32;5.47;;;;;;;14.22;70.88;96632.63;5017333;28;20064;-64
2023/05/31 01:23:03;;;;;;;9.85;4.85;;;;;;;14.21;70.78;96661.38;5021339;28;20041;-67
2023/05/31 01:25:45;;;;;;;;;;;;;;;14.14;71.75;96673.16;5020330;28;20060;-65
2023/05/31 01:28:14;;;;;;;9.88;4.78;;;;;;;14.06;72.75;96665.25;5017096;28;19964;-67
2023/05/31 01:30:39;;;;;;;13.73;5.85;;;;;;;14.06;72.46;96668.03;5020873;28;20043;-66
2023/05/31 01:33:10;;;;;;;9.55;5.85;;;;;;;14.03;72.56;96660.56;5016101;28;20183;-64
2023/05/31 01:35:35;;;;;;;11.35;5.78;;;;;;;13.97;73.16;96665.63;5021380;28;20051;-65
2023/05/31 01:38:01;;;;;;;11.57;4.80;;;;;;;13.90;73.78;96669.19;5021819;28;20041;-66
2023/05/31 01:40:26;;;;;;;11.45;5.47;;;;;;;13.89;74.23;96662.09;5016399;28;20051;-66
2023/05/31 01:42:52;;;;;;;8.52;4.95;;;;;;;13.86;74.35;96664.81;5021264;28;20056;-67
2023/05/31 01:45:19;;;;;;;15.30;5.30;;;;;;;13.79;74.78;96665.59;5016828;28;20038;-66
2023/05/31 01:47:47;;;;;;;9.77;5.50;;;;;;;13.78;75.50;96664.03;5021506;28;20029;-66
2023/05/31 01:50:13;;;;;;;13.00;5.50;;;;;;;13.79;74.77;96654.56;5016146;28;20088;-65
2023/05/31 01:52:39;;;;;;;17.30;5.65;;;;;;;13.77;75.39;96657.75;5021176;28;20128;-66
2023/05/31 01:55:05;;;;;;;15.95;6.13;;;;;;;13.71;75.80;96656.53;5016935;28;20124;-64
2023/05/31 01:57:32;;;;;;;8.15;5.10;;;;;;;13.67;75.97;96658.47;5021178;28;20783;-66
2023/05/31 02:00:00;;;;;;;9.13;4.85;;;;;;;13.70;75.86;96656.91;5021389;28;20049;-66
2023/05/31 02:02:28;;;;;;;13.00;5.47;;;;;;;13.67;76.31;96658.47;5016708;28;20034;-66
2023/05/31 02:05:13;;;;;;;11.02;5.30;;;;;;;13.65;76.47;96660.03;5019268;28;20044;-66
2023/05/31 02:07:47;;;;;;;8.40;5.68;;;;;;;13.66;76.13;96662.41;5020897;28;20049;-66
2023/05/31 02:10:13;;;;;;;13.98;5.57;;;;;;;13.57;77.19;96664.72;5015726;28;20103;-66
2023/05/31 02:12:39;;;;;;;10.27;5.43;;;;;;;13.56;77.06;96655.69;5022614;28;20490;-66
2023/05/31 02:15:10;;;;;;;8.77;5.22;;;;;;;13.53;77.58;96652.91;5021376;28;20128;-64
2023/05/31 02:17:42;;;;;;;15.82;5.65;;;;;;;13.51;77.50;96671.78;5024225;28;20439;-70
2023/05/31 02:20:13;;;;;;;12.27;5.40;;;;;;;13.46;78.19;96670.19;5019912;28;20422;-69
2023/05/31 02:22:43;;;;;;;10.18;5.38;;;;;;;13.50;77.53;96668.22;5024809;28;20041;-70
2023/05/31 02:25:10;;;;;;;11.68;5.40;;;;;;;13.56;77.62;96674.94;5019983;28;20453;-70
2023/05/31 02:27:36;;;;;;;13.80;6.10;;;;;;;13.49;78.07;96671.38;5026018;28;20148;-67
2023/05/31 02:30:04;;;;;;;12.40;5.90;;;;;;;13.53;77.60;96670.22;5024185;28;20099;-65
2023/05/31 02:32:35;;;;;;;11.68;5.35;;;;;;;13.47;78.35;96665.47;5024270;28;20041;-66
2023/05/31 02:35:04;;;;;;;10.00;6.00;;;;;;;13.47;78.21;96674.53;5026175;28;20038;-65
2023/05/31 02:37:30;;;;;;;13.43;5.40;;;;;;;13.35;79.02;96672.09;5024279;28;20064;-67
2023/05/31 02:39:56;;;;;;;11.82;5.30;;;;;;;13.36;78.91;96663.47;5024124;28;20680;-66
2023/05/31 02:42:21;;;;;;;14.48;5.63;;;;;;;13.42;78.26;96663.09;5019423;28;20053;-67
2023/05/31 02:44:46;;;;;;;9.25;4.70;;;;;;;13.38;78.60;96672.13;5024352;28;20041;-66
2023/05/31 02:47:12;;;;;;;11.73;5.22;;;;;;;13.34;78.55;96668.56;5019583;28;20525;-67
2023/05/31 02:49:37;;;;;;;9.85;5.57;;;;;;;13.32;79.11;96672.88;5024005;28;20451;-66
2023/05/31 02:52:03;;;;;;;11.88;5.70;;;;;;;13.32;78.41;96673.66;5020951;28;20540;-65
2023/05/31 02:54:28;;;;;;;12.32;5.40;;;;;;;13.32;78.36;96675.63;5023186;28;20072;-65
2023/05/31 02:56:54;;;;;;;9.35;5.43;;;;;;;13.31;78.62;96672.09;5024307;28;20530;-66
2023/05/31 02:59:19;;;;;;;18.77;5.65;;;;;;;13.32;78.51;96679.16;5018977;28;20038;-66
2023/05/31 03:01:45;;;;;;;14.38;5.40;;;;;;;13.23;78.97;96677.91;5025413;28;20038;-64
2023/05/31 03:04:10;;;;;;;13.32;5.40;;;;;;;13.12;79.72;96669.59;5019647;28;20703;-66
2023/05/31 03:06:35;;;;;;;12.00;4.90;;;;;;;13.10;79.76;96672.72;5039736;28;20048;-66
2023/05/31 03:09:01;;;;;;;14.40;6.65;;;;;;;13.11;79.41;96668.81;5024283;28;20038;-67
2023/05/31 03:11:26;;;;;;;9.43;4.70;;;;;;;13.07;79.08;96670.75;5034543;28;20048;-67
2023/05/31 03:13:52;;;;;;;10.70;4.95;;;;;;;13.05;78.83;96662.06;5024400;28;20044;-67
2023/05/31 03:16:20;;;;;;;10.50;4.60;;;;;;;13.03;78.90;96663.66;5018792;28;20044;-65
2023/05/31 03:18:45;;;;;;;9.98;4.95;;;;;;;12.92;79.53;96667.09;5039574;28;20057;-65
2023/05/31 03:21:11;;;;;;;10.07;4.90;;;;;;;12.91;79.39;96660.03;5018648;28;20041;-66
2023/05/31 03:23:36;;;;;;;8.02;4.60;;;;;;;12.88;79.52;96660.03;5023094;28;20398;-67
2023/05/31 03:26:01;;;;;;;8.05;4.60;;;;;;;12.87;79.48;96659.22;5021380;28;20095;-66
2023/05/31 03:28:27;;;;;;;8.63;4.95;;;;;;;12.79;79.88;96663.09;5020553;28;20415;-66
2023/05/31 03:30:52;;;;;;;9.43;4.60;;;;;;;12.82;79.20;96651.34;5024241;28;20049;-66
2023/05/31 03:33:18;;;;;;;9.63;5.53;;;;;;;12.82;79.11;96657.63;5019092;28;20402;-66
2023/05/31 03:35:43;;;;;;;8.98;4.30;;;;;;;12.80;78.75;96665.47;5024243;28;20246;-66
2023/05/31 03:38:08;;;;;;;11.65;4.53;;;;;;;12.80;78.65;96665.47;5018860;28;20033;-66
2023/05/31 03:40:34;;;;;;;10.57;4.32;;;;;;;12.74;78.63;96668.94;5023009;28;20097;-66
2023/05/31 03:42:59;;;;;;;8.57;4.68;;;;;;;12.74;79.07;96660.69;5023420;28;20076;-66
2023/05/31 03:45:25;;;;;;;6.90;4.40;;;;;;;12.66;79.41;96659.88;5018285;28;20041;-66
2023/05/31 03:47:50;;;;;;;12.60;5.20;;;;;;;12.62;79.24;96661.78;5023600;28;20087;-66
2023/05/31 03:50:16;;;;;;;12.57;4.72;;;;;;;12.65;79.06;96661.03;5019165;28;20045;-66
2023/05/31 03:52:41;;;;;;;9.15;4.65;;;;;;;12.62;78.64;96668.09;5023762;28;20046;-66
2023/05/31 03:55:07;;;;;;;9.02;4.30;;;;;;;12.58;78.79;96670.00;5018809;28;20372;-66
2023/05/31 03:57:32;;;;;;;9.20;4.80;;;;;;;12.60;78.66;96675.94;5023445;28;20057;-66
2023/05/31 03:59:59;;;;;;;12.00;4.38;;;;;;;12.58;78.68;96671.97;5024813;28;20037;-67
2023/05/31 04:02:25;;;;;;;11.60;4.78;;;;;;;12.55;79.10;96675.47;5020449;28;20045;-67
2023/05/31 04:04:51;;;;;;;9.15;4.68;;;;;;;12.60;78.22;96669.63;5022839;28;20098;-67
2023/05/31 04:07:16;;;;;;;10.10;4.32;;;;;;;12.59;78.28;96674.34;5018478;28;20129;-67
2023/05/31 04:09:41;;;;;;;13.93;4.22;;;;;;;12.74;77.71;96669.72;5022671;28;20034;-66
2023/05/31 04:12:07;;;;;;;8.77;4.20;;;;;;;12.72;77.18;96683.06;5017991;28;20088;-66
2023/05/31 04:14:32;;;;;;;11.32;4.25;;;;;;;12.71;76.88;96683.44;5022544;28;20394;-67
2023/05/31 04:16:58;;;;;;;9.50;4.10;;;;;;;12.71;76.95;96684.25;5022844;28;20085;-68
2023/05/31 04:19:23;;;;;;;7.88;3.65;;;;;;;12.81;77.19;96682.75;5018395;28;20048;-66
2023/05/31 04:21:49;;;;;;;11.68;4.00;;;;;;;12.79;76.61;96696.06;5022898;28;20466;-67
2023/05/31 04:24:14;;;;;;;9.32;4.38;;;;;;;12.81;75.90;96693.72;5017743;28;20485;-68
2023/05/31 04:26:40;;;;;;;15.93;4.32;;;;;;;12.87;75.96;96697.69;5022787;28;20132;-68
2023/05/31 04:29:05;;;;;;;7.78;4.20;;;;;;;12.86;74.92;96690.63;5018896;28;20065;-65
2023/05/31 04:31:35;;;;;;;7.65;4.15;;;;;;;12.85;74.50;96683.53;5022789;28;20054;-68
2023/05/31 04:34:03;;;;;;;9.35;4.05;;;;;;;12.97;73.51;96687.97;5023334;28;20041;-67
2023/05/31 04:36:35;;;;;;;9.13;3.92;;;;;;;12.93;73.46;96687.16;5022150;28;20084;-67
2023/05/31 04:39:01;;;;;;;6.55;4.22;;;;;;;13.01;73.22;96694.25;5023127;28;20077;-69
2023/05/31 04:41:26;;;;;;;13.95;4.53;;;;;;;13.05;72.74;96697.81;5017902;28;20139;-67
2023/05/31 04:43:56;;;;;;;8.48;4.32;;;;;;;13.05;72.63;96689.56;5022365;28;20613;-68
2023/05/31 04:46:22;;;;;;;9.15;4.22;;;;;;;13.04;72.72;96699.00;5016229;28;20453;-69
2023/05/31 04:48:49;;;;;;;12.18;4.15;;;;;;;13.25;72.38;96697.56;5022241;28;20568;-68
2023/05/31 04:51:16;;;;;;;10.55;4.10;;;;;;;13.34;70.20;96692.53;5017699;28;20459;-68
2023/05/31 04:53:41;;;;;;;10.20;3.47;;;;;;;13.99;67.90;96706.56;5022327;28;20033;-68
2023/05/31 04:56:09;;;;;;;9.27;3.22;;;;;;;14.50;64.43;96700.75;5016949;28;20124;-67
2023/05/31 04:58:35;;;;;;;12.35;3.95;;;;;;;14.54;63.48;96698.00;5022222;28;20468;-67
2023/05/31 05:01:00;;;;;;;9.75;3.55;;;;;;;14.36;63.80;96691.69;5020087;28;20033;-68
2023/05/31 05:03:26;;;;;;;10.18;3.65;;;;;;;15.18;61.61;96702.75;5016719;28;20124;-68
2023/05/31 05:05:51;;;;;;;12.52;3.80;;;;;;;15.31;60.41;96697.59;5021325;28;20483;-67
2023/05/31 05:08:17;;;;;;;7.35;3.20;;;;;;;15.39;58.67;96703.88;5017134;28;20061;-67
2023/05/31 05:10:43;;;;;;;10.60;3.75;;;;;;;15.08;58.63;96698.00;5022067;28;20069;-67
2023/05/31 05:13:08;;;;;;;9.82;3.55;;;;;;;15.17;59.01;96703.13;5017766;28;20037;-68
2023/05/31 05:15:34;;;;;;;12.23;3.70;;;;;;;14.90;59.75;96700.78;5023176;28;20044;-68
2023/05/31 05:17:59;;;;;;;11.93;3.42;;;;;;;14.89;60.08;96699.19;5020459;28;20076;-67
2023/05/31 05:20:24;;;;;;;8.95;3.58;;;;;;;14.87;60.50;96691.34;5016508;28;20041;-68
2023/05/31 05:22:51;;;;;;;8.23;3.60;;;;;;;15.34;59.07;96707.84;5022583;28;20088;-68
2023/05/31 05:25:17;;;;;;;10.05;3.55;;;;;;;15.47;58.78;96708.97;5017157;28;20532;-68
2023/05/31 05:27:42;;;;;;;8.02;2.92;;;;;;;15.08;59.53;96700.78;5022758;28;20065;-67
2023/05/31 05:30:08;;;;;;;7.72;3.47;;;;;;;15.34;58.72;96699.56;5016646;28;20507;-68
2023/05/31 05:32:34;;;;;;;11.40;3.72;;;;;;;15.27;57.99;96697.59;5021630;28;20394;-67
2023/05/31 05:34:59;;;;;;;8.25;3.80;;;;;;;16.01;55.89;96699.72;5022704;28;20045;-68
2023/05/31 05:37:25;;;;;;;8.98;3.25;;;;;;;15.52;57.83;96706.97;5019450;28;20159;-68
2023/05/31 05:39:50;;;;;;;7.38;2.95;;;;;;;15.93;56.72;96696.19;5021417;28;20056;-67
2023/05/31 05:42:16;;;;;;;9.75;3.10;;;;;;;15.67;56.92;96695.50;5016634;28;20837;-67
2023/05/31 05:44:41;;;;;;;7.10;3.50;;;;;;;15.41;58.44;96694.03;5021766;28;20136;-66
2023/05/31 05:47:09;;;;;;;9.35;3.63;;;;;;;15.06;58.89;96684.63;5030213;28;20069;-66
2023/05/31 05:49:35;;;;;;;7.45;3.55;;;;;;;15.24;58.84;96698.38;5020968;28;20083;-68
2023/05/31 05:52:00;;;;;;;12.48;4.07;;;;;;;15.53;57.99;96695.53;5021471;28;20048;-67
2023/05/31 05:54:25;;;;;;;5.88;3.22;;;;;;;15.26;58.04;96704.28;5016812;28;20075;-68
2023/05/31 05:56:51;;;;;;;9.20;3.38;;;;;;;15.51;58.84;96703.44;5021485;28;20065;-67
2023/05/31 05:59:16;;;;;;;12.13;3.65;;;;;;;15.71;57.88;96702.97;5016891;28;20045;-68
2023/05/31 06:01:41;;;;;;;9.45;3.70;;;;;;;15.00;58.96;96690.91;5020729;28;20566;-68
2023/05/31 06:04:07;;;;;;;10.18;3.30;;;;;;;15.44;57.81;96711.75;5016364;28;20510;-67
2023/05/31 06:06:32;;;;;;;7.10;3.35;;;;;;;15.57;57.66;96721.16;5019724;28;20056;-67
2023/05/31 06:08:58;;;;;;;7.32;3.72;;;;;;;15.10;58.15;96710.22;5019601;28;20053;-67
2023/05/31 06:11:23;;;;;;;7.75;3.40;;;;;;;15.47;57.94;96710.94;5016756;28;20049;-66
2023/05/31 06:13:48;;;;;;;9.35;3.47;;;;;;;15.52;56.59;96710.53;5020467;28;20482;-66
2023/05/31 06:16:14;;;;;;;9.90;3.63;;;;;;;15.30;57.49;96715.31;5015804;28;20041;-68
2023/05/31 06:18:40;;;;;;;9.23;3.88;;;;;;;15.74;57.28;96710.47;5020016;28;20037;-67
2023/05/31 06:21:05;;;;;;;9.63;4.00;;;;;;;15.50;57.40;96729.44;5017128;28;20486;-68
2023/05/31 06:23:31;;;;;;;9.00;3.15;;;;;;;16.12;56.17;96716.25;5020971;28;20072;-68
2023/05/31 06:25:56;;;;;;;14.73;4.00;;;;;;;15.63;56.09;96716.81;5020712;28;20037;-68
2023/05/31 06:28:22;;;;;;;10.27;4.07;;;;;;;15.77;57.29;96726.25;5014097;28;20241;-68
2023/05/31 06:30:47;;;;;;;8.65;3.40;;;;;;;16.09;57.20;96717.03;5021646;28;20042;-67
2023/05/31 06:33:13;;;;;;;7.75;3.53;;;;;;;16.61;54.93;96722.66;5015196;28;20045;-68
2023/05/31 06:35:40;;;;;;;11.10;3.72;;;;;;;17.00;54.78;96725.13;5021544;28;20048;-67
2023/05/31 06:38:06;;;;;;;7.63;3.40;;;;;;;16.61;54.15;96728.19;5017244;28;20046;-67
2023/05/31 06:40:32;;;;;;;11.40;3.70;;;;;;;16.46;54.63;96730.25;5020533;28;20052;-67
2023/05/31 06:42:57;;;;;;;8.80;3.17;;;;;;;16.22;56.02;96731.97;5021385;28;20585;-68
2023/05/31 06:45:24;;;;;;;10.20;3.53;;;;;;;16.68;54.38;96724.59;5016328;28;20518;-67
2023/05/31 06:47:49;;;;;;;10.88;3.65;;;;;;;17.13;52.73;96725.41;5020278;28;20040;-68
2023/05/31 06:50:15;;;;;;;10.90;3.60;;;;;;;17.20;52.88;96725.34;5014340;28;20049;-68
2023/05/31 06:52:40;;;;;;;10.70;3.42;;;;;;;18.53;49.76;96723.03;5020173;28;20050;-66
2023/05/31 06:55:07;;;;;;;9.13;3.00;;;;;;;17.77;51.97;96728.72;5015719;28;20056;-67
2023/05/31 06:57:32;;;;;;;7.03;3.13;;;;;;;18.85;49.32;96730.06;5020143;28;20065;-68
2023/05/31 06:59:58;;;;;;;7.95;3.78;;;;;;;18.20;49.16;96719.88;5024077;28;20083;-68
2023/05/31 07:02:25;;;;;;;14.15;3.88;;;;;;;17.75;51.14;96718.06;5020765;28;20124;-66
2023/05/31 07:04:51;;;;;;;8.38;3.65;;;;;;;18.48;50.50;96724.25;5023167;28;20060;-67
2023/05/31 07:07:16;;;;;;;11.63;4.10;;;;;;;18.82;50.41;96723.38;5018512;28;20410;-67
2023/05/31 07:09:41;;;;;;;9.75;3.53;;;;;;;19.12;48.41;96727.25;5023403;28;20394;-67
2023/05/31 07:12:07;;;;;;;9.75;3.42;;;;;;;18.69;50.57;96720.38;5018667;28;20099;-66
2023/05/31 07:14:32;;;;;;;8.93;3.47;;;;;;;18.37;50.19;96709.78;5023644;28;20129;-67
2023/05/31 07:16:58;;;;;;;8.02;3.25;;;;;;;18.53;49.61;96711.94;5023713;28;20494;-67
2023/05/31 07:19:23;;;;;;;9.63;3.30;;;;;;;17.76;52.44;96707.75;5019022;28;20583;-66
2023/05/31 07:21:48;;;;;;;10.48;3.60;;;;;;;17.90;51.60;96709.63;5024514;28;20095;-68
2023/05/31 07:24:14;;;;;;;9.50;3.35;;;;;;;19.27;48.93;96711.91;5018143;28;20071;-67
2023/05/31 07:26:40;;;;;;;9.45;3.22;;;;;;;19.02;50.82;96711.59;5022700;28;20037;-67
2023/05/31 07:29:05;;;;;;;7.63;3.40;;;;;;;19.88;46.56;96715.56;5018554;28;20042;-68
2023/05/31 07:31:30;;;;;;;8.32;3.28;;;;;;;19.38;47.80;96714.50;5037963;28;20399;-68
2023/05/31 07:33:56;;;;;;;9.98;3.55;;;;;;;18.81;50.24;96707.13;5023826;28;20129;-67
2023/05/31 07:36:24;;;;;;;11.13;3.60;;;;;;;19.45;47.29;96697.72;5018633;28;20521;-69
2023/05/31 07:38:51;;;;;;;9.02;3.58;;;;;;;19.98;46.61;96697.09;5023433;28;20050;-69
2023/05/31 07:41:16;;;;;;;7.07;2.83;;;;;;;20.52;46.70;96690.38;5017963;28;20449;-67
2023/05/31 07:43:44;;;;;;;8.40;3.90;;;;;;;20.46;44.49;96684.53;5023162;28;20045;-68
2023/05/31 07:46:09;;;;;;;7.60;3.58;;;;;;;19.19;47.80;96681.94;5018772;28;20048;-67
2023/05/31 07:48:35;;;;;;;6.68;3.53;;;;;;;19.10;48.78;96688.03;5024437;28;20042;-67
2023/05/31 07:51:01;;;;;;;10.05;3.97;;;;;;;19.06;48.90;96685.31;5023264;28;20128;-67
2023/05/31 07:53:26;;;;;;;8.95;3.70;;;;;;;18.55;49.16;96687.31;5018358;28;20049;-70
2023/05/31 07:55:52;;;;;;;10.30;3.35;;;;;;;18.79;49.70;96690.91;5023301;28;20041;-68
2023/05/31 07:58:17;;;;;;;9.18;3.92;;;;;;;19.31;49.21;96695.19;5018409;28;20081;-68
2023/05/31 08:00:42;;;;;;;5.82;3.17;;;;;;;19.44;48.72;96693.34;5023032;28;20039;-67
2023/05/31 08:03:08;;;;;;;10.07;3.60;;;;;;;19.37;47.59;96684.38;5017876;28;20069;-68
2023/05/31 08:05:33;;;;;;;10.38;3.50;;;;;;;19.86;47.86;96690.19;5038042;28;20612;-68
2023/05/31 08:08:00;;;;;;;10.48;3.97;;;;;;;19.64;48.00;96679.50;5023235;28;20034;-66
2023/05/31 08:10:25;;;;;;;10.05;3.60;;;;;;;19.40;48.56;96670.44;5018393;28;20042;-68
2023/05/31 08:12:51;;;;;;;9.15;3.78;;;;;;;18.88;49.83;96674.53;5022583;28;20152;-67
2023/05/31 08:15:17;;;;;;;11.27;4.05;;;;;;;19.13;49.18;96689.97;5017821;28;20052;-68
2023/05/31 08:17:43;;;;;;;7.65;3.40;;;;;;;19.43;48.44;96677.13;5022031;28;20038;-68
2023/05/31 08:20:13;;;;;;;9.90;4.10;;;;;;;20.10;48.70;96674.22;5017717;28;20042;-67
2023/05/31 08:22:41;;;;;;;7.97;3.63;;;;;;;19.53;48.55;96678.13;5022253;28;20390;-66
2023/05/31 08:25:07;;;;;;;8.90;3.60;;;;;;;19.88;48.44;96673.09;5018433;28;20042;-67
2023/05/31 08:27:32;;;;;;;11.80;3.72;;;;;;;20.16;47.48;96678.03;5023106;28;20046;-66
2023/05/31 08:29:58;;;;;;;9.52;3.75;;;;;;;20.17;47.12;96665.72;5022878;28;20037;-66
2023/05/31 08:32:23;;;;;;;6.85;3.78;;;;;;;20.38;47.07;96661.66;5017018;28;20538;-67
2023/05/31 08:34:49;;;;;;;8.52;3.60;;;;;;;20.04;47.25;96673.13;5022717;28;20045;-66
2023/05/31 08:37:14;;;;;;;9.65;3.83;;;;;;;19.90;47.44;96670.66;5017064;28;20075;-71
2023/05/31 08:39:40;;;;;;;8.98;3.60;;;;;;;20.31;45.97;96677.72;5022136;28;20107;-67
2023/05/31 08:42:14;;;;;;;8.55;4.00;;;;;;;20.76;47.65;96672.31;5017227;28;20128;-67
2023/05/31 08:44:40;;;;;;;7.53;3.80;;;;;;;20.36;47.00;96666.09;5022060;28;20079;-67
2023/05/31 08:47:50;;;;;;;7.95;3.50;;;;;;;20.93;46.77;96661.94;5017476;28;20037;-67
2023/05/31 08:50:17;;;;;;;7.25;3.40;;;;;;;21.34;46.02;96666.06;5017151;28;20120;-67
2023/05/31 08:52:45;;;;;;;9.80;4.07;;;;;;;20.86;45.23;96664.16;5021398;28;20041;-67
2023/05/31 08:55:11;;;;;;;8.23;3.53;;;;;;;20.49;46.02;96661.41;5017254;28;20038;-67
2023/05/31 08:57:37;;;;;;;7.82;3.47;;;;;;;20.37;45.11;96676.78;5021517;28;20176;-67
2023/05/31 09:00:10;;;;;;;10.35;3.70;;;;;;;20.65;45.89;96660.66;5019791;28;20563;-68
2023/05/31 09:02:36;;;;;;;7.80;3.47;;;;;;;21.33;44.38;96652.56;5021613;28;20397;-67
2023/05/31 09:05:02;;;;;;;8.98;3.58;;;;;;;21.18;44.48;96652.19;5019756;28;20033;-67
2023/05/31 09:07:27;;;;;;;7.68;3.72;;;;;;;21.66;44.20;96660.84;5019161;28;20052;-67
2023/05/31 09:09:53;;;;;;;10.10;4.00;;;;;;;21.12;44.96;96657.50;5021358;28;20082;-67
2023/05/31 09:12:18;;;;;;;8.65;3.85;;;;;;;21.51;44.56;96671.63;5017001;28;20041;-67
2023/05/31 09:14:44;;;;;;;12.05;4.10;;;;;;;21.91;43.32;96657.34;5022289;28;20201;-68
2023/05/31 09:17:09;;;;;;;8.23;3.70;;;;;;;21.83;43.43;96653.22;5017111;28;20033;-67
2023/05/31 09:19:40;;;;;;;10.30;3.40;;;;;;;21.41;43.16;96667.09;5021681;28;20498;-67
2023/05/31 09:22:06;;;;;;;7.88;4.38;;;;;;;21.16;43.52;96668.56;5017192;28;20049;-68
2023/05/31 09:24:31;;;;;;;8.35;3.60;;;;;;;21.16;43.22;96677.69;5021283;28;20053;-67
2023/05/31 09:26:56;;;;;;;8.05;3.38;;;;;;;21.27;43.46;96668.28;5022075;28;20037;-67
2023/05/31 09:29:22;;;;;;;8.27;3.97;;;;;;;21.77;43.08;96667.69;5016688;28;20053;-67
2023/05/31 09:31:48;;;;;;;9.35;4.35;;;;;;;21.53;43.35;96671.97;5021386;28;20069;-67
2023/05/31 09:34:27;;;;;;;6.45;3.17;;;;;;;21.86;41.84;96660.69;5016305;28;20048;-67
2023/05/31 09:36:57;;;;;;;10.40;4.35;;;;;;;21.95;42.22;96669.19;5021108;28;20050;-66
2023/05/31 09:39:22;;;;;;;6.65;3.92;;;;;;;21.64;42.80;96657.72;5016036;28;20073;-66
2023/05/31 09:41:51;;;;;;;6.90;3.60;;;;;;;21.70;43.50;96665.13;5021669;28;20072;-67
2023/05/31 09:44:17;;;;;;;9.20;3.78;;;;;;;22.22;42.56;96665.19;5015703;28;20506;-67
2023/05/31 09:46:46;;;;;;;9.65;3.97;;;;;;;21.79;41.85;96672.84;5021166;28;20038;-65
2023/05/31 09:49:11;;;;;;;10.50;3.78;;;;;;;22.15;42.27;96661.41;5016381;28;20132;-67
2023/05/31 09:51:37;;;;;;;7.13;3.33;;;;;;;21.82;43.44;96657.22;5020566;28;20040;-66
2023/05/31 09:54:14;;;;;;;8.23;3.58;;;;;;;22.15;42.97;96655.81;5020982;28;20107;-67
2023/05/31 09:56:41;;;;;;;8.35;3.80;;;;;;;22.44;41.85;96649.41;5023364;28;20041;-67
2023/05/31 09:59:07;;;;;;;7.63;3.22;;;;;;;22.42;41.68;96665.00;5016390;28;20038;-67
2023/05/31 10:01:33;;;;;;;10.63;4.13;;;;;;;22.11;42.53;96655.16;5020950;28;20042;-67
2023/05/31 10:03:59;;;;;;;11.13;3.78;;;;;;;22.02;43.38;96660.63;5020437;28;20042;-67
2023/05/31 10:06:26;;;;;;;9.93;3.70;;;;;;;22.11;42.22;96659.94;5015899;28;20944;-66
2023/05/31 10:08:51;;;;;;;9.15;3.88;;;;;;;22.38;40.66;96662.31;5021042;28;20038;-65
2023/05/31 10:11:21;;;;;;;11.93;3.60;;;;;;;23.16;41.45;96663.06;5016405;28;20049;-67
2023/05/31 10:13:49;;;;;;;;;;;;;;;23.26;40.54;96654.31;5021478;28;20065;-67
2023/05/31 10:16:16;;;;;;;6.88;3.78;;;;;;;23.50;41.69;96664.25;5015613;28;19943;-66
2023/05/31 10:18:45;;;;;;;9.98;4.40;;;;;;;22.69;40.91;96654.19;5020689;28;20110;-67
2023/05/31 10:21:22;;;;;;;11.80;3.97;;;;;;;22.08;40.47;96656.03;5015695;28;20045;-67
2023/05/31 10:24:02;;;;;;;9.55;3.90;;;;;;;21.79;41.92;96656.09;5018994;28;20041;-67
2023/05/31 10:26:49;;;;;;;9.85;3.92;;;;;;;22.12;41.39;96658.72;5018783;28;20045;-67
2023/05/31 10:29:19;;;;;;;9.63;3.40;;;;;;;22.12;41.53;96651.13;5016841;28;20486;-68
2023/05/31 10:31:54;;;;;;;11.05;4.03;;;;;;;22.41;41.81;96655.84;5020834;28;20056;-67
2023/05/31 10:34:24;;;;;;;11.25;3.97;;;;;;;22.48;41.12;96657.66;5018326;28;20060;-67
2023/05/31 10:36:51;;;;;;;9.90;3.63;;;;;;;22.27;40.96;96623.63;5023843;28;20148;-67
2023/05/31 10:39:31;;;;;;;6.30;3.78;;;;;;;22.29;41.79;96639.91;5019125;28;20056;-66
2023/05/31 10:42:05;;;;;;;;;;;;;;;22.60;40.37;96637.34;5025538;28;20045;-67
2023/05/31 10:44:42;;;;;;;6.88;3.60;;;;;;;22.62;40.69;96639.69;5022635;28;19956;-67
2023/05/31 10:47:09;;;;;;;8.18;3.80;;;;;;;22.66;40.33;96643.13;5018947;28;20038;-66
2023/05/31 10:49:36;;;;;;;10.75;4.05;;;;;;;22.40;41.16;96633.97;5024212;28;20462;-67
2023/05/31 10:52:05;;;;;;;9.07;3.58;;;;;;;22.49;40.81;96640.47;5023715;28;20037;-67
2023/05/31 10:54:33;;;;;;;10.20;3.60;;;;;;;22.44;41.59;96627.06;5023713;28;20467;-67
2023/05/31 10:56:59;;;;;;;8.90;3.53;;;;;;;22.68;42.02;96633.06;5024123;28;20048;-67
2023/05/31 10:59:28;;;;;;;13.18;4.43;;;;;;;22.95;40.99;96622.63;5019262;28;20045;-67
2023/05/31 11:01:54;;;;;;;13.57;3.97;;;;;;;23.06;39.55;96625.84;5024395;28;20065;-67
2023/05/31 11:04:25;;;;;;;7.47;3.53;;;;;;;22.83;40.78;96625.00;5018662;28;20151;-67
2023/05/31 11:07:14;;;;;;;9.25;3.60;;;;;;;22.94;41.14;96626.66;5023835;28;20053;-67
2023/05/31 11:09:40;;;;;;;8.77;3.30;;;;;;;22.99;40.53;96629.63;5024752;28;20098;-67
2023/05/31 11:12:06;;;;;;;7.22;3.67;;;;;;;23.48;41.01;96629.16;5019893;28;20045;-65
2023/05/31 11:14:32;;;;;;;8.02;3.30;;;;;;;23.43;39.75;96626.94;5024342;28;20041;-68
2023/05/31 11:17:02;;;;;;;10.32;3.70;;;;;;;22.99;40.35;96629.63;5026184;28;20494;-67
2023/05/31 11:19:29;;;;;;;7.90;3.40;;;;;;;22.95;40.54;96628.22;5020569;28;20184;-67
2023/05/31 11:22:07;;;;;;;9.95;3.42;;;;;;;22.77;39.98;96629.59;5023639;28;20060;-68
2023/05/31 11:24:51;;;;;;;7.60;3.33;;;;;;;22.73;39.88;96614.19;5022760;28;20041;-68
2023/05/31 11:27:21;;;;;;;7.43;3.42;;;;;;;23.05;40.46;96621.53;5018795;28;20379;-67
2023/05/31 11:29:52;;;;;;;7.30;3.80;;;;;;;23.03;39.08;96604.38;5023188;28;20099;-67
2023/05/31 11:32:39;;;;;;;8.48;3.75;;;;;;;23.09;39.66;96616.59;5018232;28;20169;-67